Time;durP1;ratioP1;P1;durP2;ratioP2;P2;SDS_P1;SDS_P2;PMS_P1;PMS_P2;Temp;Humidity;BMP_temperature;BMP_pressure;BME280_temperature;BME280_humidity;BME280_pressure;Samples;Min_cycle;Max_cycle;Signal;HPM_P1;HPM_P2
2023/09/02 00:01:29;;;;;;;0.00;0.00;;;21.20;91.80;;;;;;5044974;28;20071;-72
2023/09/02 00:03:55;;;;;;;0.00;0.00;;;21.10;92.00;;;;;;5048546;28;20051;-72
2023/09/02 00:06:21;;;;;;;0.00;0.00;;;21.20;92.00;;;;;;5045729;28;20029;-74
2023/09/02 00:08:47;;;;;;;0.73;0.57;;;21.00;92.40;;;;;;5042801;28;20373;-72
2023/09/02 00:11:13;;;;;;;0.00;0.00;;;20.90;93.00;;;;;;5046082;28;20032;-72
2023/09/02 00:13:39;;;;;;;0.00;0.00;;;21.10;92.50;;;;;;5042561;28;20033;-74
2023/09/02 00:16:04;;;;;;;0.00;0.00;;;21.10;92.70;;;;;;5042337;28;20032;-73
2023/09/02 00:18:30;;;;;;;0.00;0.00;;;21.10;92.90;;;;;;5047798;28;20079;-73
2023/09/02 00:20:56;;;;;;;0.00;0.00;;;21.00;93.20;;;;;;5042145;28;20618;-73
2023/09/02 00:23:21;;;;;;;0.10;0.10;;;21.00;93.20;;;;;;5042874;28;20021;-72
2023/09/02 00:25:47;;;;;;;0.00;0.00;;;21.10;93.20;;;;;;5042719;28;20032;-72
2023/09/02 00:28:13;;;;;;;0.00;0.00;;;21.10;93.30;;;;;;5040527;28;20819;-73
2023/09/02 00:30:38;;;;;;;0.00;0.00;;;21.10;93.30;;;;;;5041982;28;20021;-72
2023/09/02 00:33:04;;;;;;;0.00;0.00;;;21.10;93.30;;;;;;5042668;28;20037;-73
2023/09/02 00:35:30;;;;;;;0.00;0.00;;;21.10;93.70;;;;;;5042080;28;20795;-73
2023/09/02 00:37:56;;;;;;;0.00;0.00;;;21.00;94.60;;;;;;5041953;28;20448;-73
2023/09/02 00:40:23;;;;;;;0.00;0.00;;;20.80;95.30;;;;;;5041946;28;20373;-73
2023/09/02 00:42:51;;;;;;;0.10;0.10;;;20.80;95.60;;;;;;5041477;28;20610;-72
2023/09/02 00:45:21;;;;;;;0.10;0.10;;;20.80;95.70;;;;;;5042002;28;20116;-72
2023/09/02 00:47:49;;;;;;;0.00;0.00;;;21.00;95.70;;;;;;5038160;28;20116;-72
2023/09/02 00:50:15;;;;;;;0.00;0.00;;;21.00;95.60;;;;;;5039866;28;20511;-72
2023/09/02 00:52:41;;;;;;;0.00;0.00;;;21.00;95.80;;;;;;5042350;28;20029;-72
2023/09/02 00:55:07;;;;;;;0.00;0.00;;;21.00;96.30;;;;;;5039980;28;20123;-73
2023/09/02 00:57:32;;;;;;;0.00;0.00;;;20.80;96.80;;;;;;5040389;28;20073;-72
2023/09/02 01:00:00;;;;;;;0.00;0.00;;;20.80;97.10;;;;;;5042614;28;20112;-72
2023/09/02 01:02:27;;;;;;;0.00;0.00;;;20.90;96.50;;;;;;5042202;28;20036;-72
2023/09/02 01:04:52;;;;;;;0.00;0.00;;;21.00;96.30;;;;;;5041901;28;20543;-72
2023/09/02 01:07:18;;;;;;;0.83;0.53;;;21.00;96.30;;;;;;5041681;28;20044;-72
2023/09/02 01:09:45;;;;;;;0.00;0.00;;;21.00;96.50;;;;;;5040070;28;20275;-72
2023/09/02 01:12:12;;;;;;;0.00;0.00;;;20.90;97.00;;;;;;5041900;28;20512;-72
2023/09/02 01:14:38;;;;;;;0.20;0.15;;;20.80;97.40;;;;;;5043614;28;20060;-73
2023/09/02 01:17:04;;;;;;;0.00;0.00;;;20.80;97.70;;;;;;5044728;28;20159;-73
2023/09/02 01:19:30;;;;;;;0.00;0.00;;;20.70;97.80;;;;;;5047662;28;20396;-72
2023/09/02 01:22:17;;;;;;;0.10;0.10;;;20.70;98.10;;;;;;5046132;28;20025;-72
2023/09/02 01:25:02;;;;;;;0.00;0.00;;;20.70;97.80;;;;;;5044060;28;20040;-73
2023/09/02 01:27:49;;;;;;;0.00;0.00;;;20.60;98.20;;;;;;5040214;28;20028;-72
2023/09/02 01:30:19;;;;;;;0.00;0.00;;;20.60;98.40;;;;;;5038093;28;20025;-72
2023/09/02 01:32:48;;;;;;;0.00;0.00;;;20.60;98.20;;;;;;5045228;28;20036;-72
2023/09/02 01:35:18;;;;;;;0.00;0.00;;;20.50;98.40;;;;;;5037413;28;20045;-73
2023/09/02 01:37:48;;;;;;;0.00;0.00;;;20.50;98.70;;;;;;5043989;28;20155;-72
2023/09/02 01:40:24;;;;;;;0.00;0.00;;;20.50;98.80;;;;;;5045183;28;20033;-72
2023/09/02 01:42:51;;;;;;;0.00;0.00;;;20.60;98.80;;;;;;5041733;28;20031;-72
2023/09/02 01:45:18;;;;;;;0.03;0.03;;;20.70;98.60;;;;;;5043462;28;20903;-73
2023/09/02 01:47:45;;;;;;;0.00;0.00;;;20.80;98.60;;;;;;5038985;28;20037;-74
2023/09/02 01:50:14;;;;;;;0.00;0.00;;;20.80;98.50;;;;;;5044535;28;20027;-73
2023/09/02 01:52:42;;;;;;;0.00;0.00;;;20.80;98.40;;;;;;5039334;28;20121;-73
2023/09/02 01:55:08;;;;;;;0.00;0.00;;;20.90;98.40;;;;;;5042974;28;20068;-72
2023/09/02 01:57:34;;;;;;;0.00;0.00;;;20.90;98.10;;;;;;5038141;28;20056;-74
2023/09/02 02:00:00;;;;;;;0.00;0.00;;;20.90;98.20;;;;;;5040454;28;20113;-74
2023/09/02 02:02:26;;;;;;;0.00;0.00;;;20.80;98.30;;;;;;5042489;28;20437;-71
2023/09/02 02:04:55;;;;;;;0.00;0.00;;;20.70;98.50;;;;;;5041154;28;20083;-74
2023/09/02 02:07:24;;;;;;;0.00;0.00;;;20.70;98.60;;;;;;5042286;28;20079;-71
2023/09/02 02:09:56;;;;;;;0.00;0.00;;;20.70;98.40;;;;;;5040559;28;20025;-74
2023/09/02 02:12:22;;;;;;;0.00;0.00;;;20.80;98.10;;;;;;5041520;28;20025;-73
2023/09/02 02:14:47;;;;;;;0.00;0.00;;;20.80;98.50;;;;;;5041599;28;20489;-73
2023/09/02 02:17:14;;;;;;;0.00;0.00;;;20.90;98.10;;;;;;5041266;28;20293;-72
2023/09/02 02:19:40;;;;;;;0.03;0.03;;;20.90;98.10;;;;;;5041695;28;21287;-73
2023/09/02 02:22:06;;;;;;;0.00;0.00;;;20.90;98.00;;;;;;5041697;28;20067;-72
2023/09/02 02:24:31;;;;;;;0.00;0.00;;;20.90;98.00;;;;;;5042485;28;20104;-72
2023/09/02 02:26:57;;;;;;;0.00;0.00;;;21.00;98.00;;;;;;5042274;28;20028;-74
2023/09/02 02:29:23;;;;;;;0.00;0.00;;;21.00;97.80;;;;;;5041506;28;20044;-72
2023/09/02 02:31:49;;;;;;;0.00;0.00;;;21.00;97.70;;;;;;5042033;28;20032;-72
2023/09/02 02:34:15;;;;;;;0.00;0.00;;;21.00;97.60;;;;;;5040232;28;20053;-71
2023/09/02 02:36:41;;;;;;;0.30;0.17;;;21.00;97.60;;;;;;5042450;28;20055;-73
2023/09/02 02:39:07;;;;;;;0.03;0.03;;;21.00;97.70;;;;;;5042644;28;20025;-72
2023/09/02 02:41:33;;;;;;;0.45;0.45;;;21.00;98.50;;;;;;5039329;28;20077;-74
2023/09/02 02:43:59;;;;;;;0.00;0.00;;;20.80;99.70;;;;;;5041041;28;20033;-73
2023/09/02 02:46:25;;;;;;;0.00;0.00;;;20.70;99.90;;;;;;5039955;28;20029;-72
2023/09/02 02:48:51;;;;;;;0.00;0.00;;;20.60;99.90;;;;;;5039816;28;20423;-73
2023/09/02 02:51:18;;;;;;;0.00;0.00;;;20.50;99.90;;;;;;5042198;28;20032;-72
2023/09/02 02:53:45;;;;;;;0.00;0.00;;;20.50;99.90;;;;;;5041781;28;20033;-72
2023/09/02 02:56:10;;;;;;;0.05;0.05;;;20.50;99.90;;;;;;5040754;28;20536;-74
2023/09/02 02:58:36;;;;;;;0.00;0.00;;;20.30;99.90;;;;;;5036086;28;21025;-73
2023/09/02 03:01:08;;;;;;;0.00;0.00;;;20.20;99.90;;;;;;5038744;28;20058;-72
2023/09/02 03:03:38;;;;;;;0.00;0.00;;;20.00;99.90;;;;;;5041522;28;20033;-72
2023/09/02 03:06:04;;;;;;;0.30;0.30;;;20.00;99.90;;;;;;5041202;28;20029;-73
2023/09/02 03:08:30;;;;;;;0.05;0.05;;;19.90;99.90;;;;;;5040055;28;20102;-73
2023/09/02 03:11:01;;;;;;;0.00;0.00;;;19.80;99.90;;;;;;5039979;28;20029;-74
2023/09/02 03:13:33;;;;;;;0.68;0.20;;;19.80;99.90;;;;;;5041955;28;20048;-72
2023/09/02 03:16:00;;;;;;;0.57;0.40;;;19.90;99.90;;;;;;5040163;28;20060;-72
2023/09/02 03:18:25;;;;;;;;;;;19.70;99.90;;;;;;5050478;28;20518;-71
2023/09/02 03:20:51;;;;;;;0.10;0.10;;;19.90;99.90;;;;;;5043263;28;20047;-74
2023/09/02 03:23:18;;;;;;;0.10;0.10;;;19.90;99.90;;;;;;5041027;28;20033;-72
2023/09/02 03:25:43;;;;;;;0.10;0.10;;;19.70;99.90;;;;;;5042365;28;20057;-72
2023/09/02 03:28:09;;;;;;;0.00;0.00;;;19.80;99.90;;;;;;5043476;28;21268;-73
2023/09/02 03:30:35;;;;;;;0.00;0.00;;;19.70;99.90;;;;;;5044330;28;20091;-71
2023/09/02 03:33:00;;;;;;;1.20;1.10;;;19.40;99.90;;;;;;5042996;28;20024;-73
2023/09/02 03:35:26;;;;;;;0.00;0.00;;;19.20;99.90;;;;;;5039283;28;20053;-74
2023/09/02 03:37:52;;;;;;;0.47;0.47;;;19.20;99.90;;;;;;5042816;28;20107;-74
2023/09/02 03:40:18;;;;;;;0.00;0.00;;;18.90;99.90;;;;;;5041062;28;20039;-73
2023/09/02 03:42:44;;;;;;;0.07;0.07;;;18.30;99.90;;;;;;5042748;28;20029;-73
2023/09/02 03:45:10;;;;;;;0.00;0.00;;;18.30;99.90;;;;;;5042557;28;20037;-73
2023/09/02 03:47:36;;;;;;;6.20;0.47;;;18.10;99.90;;;;;;5034719;28;20632;-72
2023/09/02 03:50:03;;;;;;;0.70;0.47;;;18.20;99.90;;;;;;5041012;28;20107;-72
2023/09/02 03:52:29;;;;;;;;;;;18.10;99.90;;;;;;5042635;28;20037;-72
2023/09/02 03:54:55;;;;;;;0.00;0.00;;;18.00;99.90;;;;;;5042342;28;20425;-72
2023/09/02 03:57:20;;;;;;;0.00;0.00;;;18.10;99.90;;;;;;5041232;28;20298;-74
2023/09/02 03:59:46;;;;;;;0.07;0.07;;;18.30;99.90;;;;;;5042478;28;20074;-72
2023/09/02 04:02:12;;;;;;;0.27;0.27;;;18.40;99.90;;;;;;5041867;28;20035;-72
2023/09/02 04:04:37;;;;;;;0.00;0.00;;;18.60;99.90;;;;;;5050967;28;20029;-72
2023/09/02 04:07:03;;;;;;;0.00;0.00;;;18.40;99.90;;;;;;5046773;28;20713;-71
2023/09/02 04:09:29;;;;;;;0.03;0.03;;;18.30;99.90;;;;;;5042751;28;20041;-72
2023/09/02 04:11:54;;;;;;;0.33;0.33;;;18.10;99.90;;;;;;5042323;28;20112;-72
2023/09/02 04:14:20;;;;;;;0.00;0.00;;;18.10;99.90;;;;;;5042246;28;20510;-73
2023/09/02 04:16:46;;;;;;;0.00;0.00;;;18.10;99.90;;;;;;5042212;28;20037;-72
2023/09/02 04:19:11;;;;;;;0.00;0.00;;;18.00;99.90;;;;;;5035226;28;20078;-74
2023/09/02 04:21:37;;;;;;;0.00;0.00;;;17.90;99.90;;;;;;5040225;28;20036;-72
2023/09/02 04:24:03;;;;;;;0.00;0.00;;;17.90;99.90;;;;;;5040430;28;20744;-72
2023/09/02 04:26:29;;;;;;;0.10;0.10;;;17.90;99.90;;;;;;5041799;28;20063;-72
2023/09/02 04:28:55;;;;;;;0.50;0.50;;;17.90;99.90;;;;;;5041837;28;20057;-72
2023/09/02 04:31:22;;;;;;;0.00;0.00;;;17.90;99.90;;;;;;5041897;28;20574;-72
2023/09/02 04:33:48;;;;;;;0.00;0.00;;;17.80;99.90;;;;;;5039869;28;20735;-73
2023/09/02 04:36:13;;;;;;;0.00;0.00;;;17.90;99.90;;;;;;5041911;28;20056;-72
2023/09/02 04:38:39;;;;;;;0.00;0.00;;;17.90;99.90;;;;;;5041864;28;20029;-75
2023/09/02 04:41:06;;;;;;;0.00;0.00;;;17.80;99.90;;;;;;5038414;28;20028;-71
2023/09/02 04:43:32;;;;;;;;;;;17.80;99.90;;;;;;5041738;28;20037;-72
2023/09/02 04:46:02;;;;;;;0.13;0.13;;;17.80;99.90;;;;;;5040604;28;19913;-72
2023/09/02 04:48:28;;;;;;;0.00;0.00;;;17.80;99.90;;;;;;5042005;28;20064;-72
2023/09/02 04:50:54;;;;;;;0.00;0.00;;;17.80;99.90;;;;;;5044096;28;20108;-74
2023/09/02 04:53:20;;;;;;;0.00;0.00;;;17.80;99.90;;;;;;5044273;28;20023;-71
2023/09/02 04:55:47;;;;;;;0.00;0.00;;;17.80;99.90;;;;;;5045805;28;20041;-71
2023/09/02 04:58:13;;;;;;;0.00;0.00;;;17.80;99.90;;;;;;5046118;28;20032;-72
2023/09/02 05:00:40;;;;;;;2.80;1.02;;;17.80;99.90;;;;;;5045734;28;20567;-74
2023/09/02 05:03:06;;;;;;;0.00;0.00;;;17.80;99.90;;;;;;5039213;28;20082;-71
2023/09/02 05:05:32;;;;;;;0.00;0.00;;;17.80;99.90;;;;;;5044881;28;20060;-72
2023/09/02 05:07:58;;;;;;;0.00;0.00;;;17.90;99.90;;;;;;5047442;28;20494;-72
2023/09/02 05:10:24;;;;;;;0.00;0.00;;;17.90;99.90;;;;;;5045625;28;20116;-72
2023/09/02 05:12:51;;;;;;;0.00;0.00;;;18.00;99.90;;;;;;5045462;28;20029;-73
2023/09/02 05:15:16;;;;;;;0.00;0.00;;;18.20;99.90;;;;;;5045711;28;20049;-72
2023/09/02 05:17:45;;;;;;;0.00;0.00;;;18.10;99.90;;;;;;5045617;28;20032;-74
2023/09/02 05:20:11;;;;;;;0.00;0.00;;;18.10;99.90;;;;;;5044067;28;20031;-73
2023/09/02 05:22:37;;;;;;;0.00;0.00;;;18.10;99.90;;;;;;5046064;28;20062;-72
2023/09/02 05:25:06;;;;;;;0.00;0.00;;;18.20;99.90;;;;;;5045172;28;20045;-72
2023/09/02 05:27:32;;;;;;;0.00;0.00;;;18.20;99.90;;;;;;5042611;28;20112;-75
2023/09/02 05:29:58;;;;;;;0.00;0.00;;;18.10;99.90;;;;;;5042721;28;20028;-73
2023/09/02 05:32:23;;;;;;;0.30;0.30;;;18.20;99.90;;;;;;5042593;28;20520;-72
2023/09/02 05:34:49;;;;;;;0.00;0.00;;;18.20;99.90;;;;;;5045159;28;20059;-73
2023/09/02 05:37:15;;;;;;;0.00;0.00;;;18.20;99.90;;;;;;5044577;28;20056;-72
2023/09/02 05:39:41;;;;;;;0.00;0.00;;;18.10;99.90;;;;;;5044827;28;20116;-73
2023/09/02 05:42:06;;;;;;;0.00;0.00;;;18.20;99.90;;;;;;5044663;28;20029;-71
2023/09/02 05:44:34;;;;;;;0.00;0.00;;;18.30;99.90;;;;;;5043192;28;20033;-72
2023/09/02 05:47:00;;;;;;;0.00;0.00;;;18.20;99.90;;;;;;5042764;28;20040;-71
2023/09/02 05:49:26;;;;;;;0.00;0.00;;;18.30;99.90;;;;;;5044708;28;20443;-72
2023/09/02 05:51:51;;;;;;;0.00;0.00;;;18.20;99.90;;;;;;5044649;28;20064;-74
2023/09/02 05:54:17;;;;;;;0.00;0.00;;;18.20;99.90;;;;;;5041113;28;20102;-72
2023/09/02 05:56:43;;;;;;;0.10;0.10;;;18.30;99.90;;;;;;5041027;28;20041;-71
2023/09/02 05:59:08;;;;;;;0.10;0.10;;;18.30;99.90;;;;;;5037785;28;20436;-72
2023/09/02 06:01:34;;;;;;;0.00;0.00;;;18.30;99.90;;;;;;5040180;28;20059;-72
2023/09/02 06:04:00;;;;;;;0.00;0.00;;;18.30;99.90;;;;;;5041077;28;20120;-71
2023/09/02 06:06:25;;;;;;;0.00;0.00;;;18.40;99.90;;;;;;5043825;28;20032;-71
2023/09/02 06:08:53;;;;;;;0.00;0.00;;;18.30;99.90;;;;;;5041419;28;20029;-73
2023/09/02 06:11:19;;;;;;;0.00;0.00;;;18.10;99.90;;;;;;5043138;28;20120;-71
2023/09/02 06:13:45;;;;;;;0.00;0.00;;;18.10;99.90;;;;;;5042500;28;20029;-71
2023/09/02 06:16:10;;;;;;;0.00;0.00;;;18.10;99.90;;;;;;5040931;28;20156;-72
2023/09/02 06:18:36;;;;;;;0.00;0.00;;;18.30;99.90;;;;;;5042912;28;20053;-72
2023/09/02 06:21:10;;;;;;;0.20;0.20;;;18.30;99.90;;;;;;5043206;28;20479;-73
2023/09/02 06:23:35;;;;;;;0.00;0.00;;;18.20;99.90;;;;;;5041266;28;20021;-72
2023/09/02 06:26:01;;;;;;;0.00;0.00;;;18.40;99.90;;;;;;5041113;28;20060;-72
2023/09/02 06:28:27;;;;;;;0.00;0.00;;;18.20;99.90;;;;;;5042847;28;20033;-72
2023/09/02 06:30:54;;;;;;;0.00;0.00;;;18.40;99.90;;;;;;5041639;28;20457;-72
2023/09/02 06:33:21;;;;;;;0.00;0.00;;;18.60;99.90;;;;;;5040911;28;20029;-72
2023/09/02 06:35:48;;;;;;;0.00;0.00;;;18.60;99.90;;;;;;5042364;28;20083;-73
2023/09/02 06:38:14;;;;;;;;;;;18.60;99.90;;;;;;5038299;28;20029;-72
2023/09/02 06:40:39;;;;;;;0.00;0.00;;;18.60;99.90;;;;;;5042530;28;20316;-72
2023/09/02 06:43:05;;;;;;;0.00;0.00;;;18.60;99.90;;;;;;5041555;28;20043;-73
2023/09/02 06:45:31;;;;;;;0.00;0.00;;;18.60;99.90;;;;;;5039923;28;20039;-72
2023/09/02 06:47:56;;;;;;;0.00;0.00;;;18.50;99.90;;;;;;5035457;28;20593;-72
2023/09/02 06:50:22;;;;;;;0.00;0.00;;;18.40;99.90;;;;;;5042498;28;20044;-72
2023/09/02 06:52:50;;;;;;;0.00;0.00;;;18.30;99.90;;;;;;5040428;28;20040;-71
2023/09/02 06:55:16;;;;;;;0.00;0.00;;;18.30;99.90;;;;;;5042933;28;20037;-73
2023/09/02 06:57:44;;;;;;;15.63;3.00;;;18.20;99.90;;;;;;5036413;28;20038;-72
2023/09/02 07:00:11;;;;;;;0.00;0.00;;;18.20;99.90;;;;;;5041895;28;20029;-72
2023/09/02 07:02:36;;;;;;;0.00;0.00;;;18.20;99.90;;;;;;5041678;28;20450;-75
2023/09/02 07:05:02;;;;;;;0.00;0.00;;;18.20;99.90;;;;;;5040996;28;20037;-71
2023/09/02 07:07:28;;;;;;;0.00;0.00;;;18.20;99.90;;;;;;5040709;28;20476;-71
2023/09/02 07:09:54;;;;;;;0.60;0.60;;;18.30;99.90;;;;;;5039678;28;20535;-70
2023/09/02 07:12:20;;;;;;;0.00;0.00;;;18.30;99.90;;;;;;5041072;28;20044;-72
2023/09/02 07:14:45;;;;;;;0.00;0.00;;;18.30;99.90;;;;;;5039212;28;20064;-71
2023/09/02 07:17:11;;;;;;;0.77;0.30;;;18.40;99.90;;;;;;5041443;28;20040;-71
2023/09/02 07:19:37;;;;;;;0.00;0.00;;;18.40;99.90;;;;;;5043994;28;20040;-71
2023/09/02 07:22:03;;;;;;;0.00;0.00;;;18.50;99.90;;;;;;5041994;28;20037;-76
2023/09/02 07:24:29;;;;;;;0.00;0.00;;;18.60;99.90;;;;;;5038510;28;20451;-73
2023/09/02 07:26:54;;;;;;;0.00;0.00;;;18.70;99.90;;;;;;5037187;28;20086;-73
2023/09/02 07:29:20;;;;;;;0.00;0.00;;;18.90;99.90;;;;;;5041300;28;20784;-72
2023/09/02 07:31:46;;;;;;;0.00;0.00;;;19.10;99.90;;;;;;5039244;28;20804;-71
2023/09/02 07:34:12;;;;;;;0.00;0.00;;;19.40;99.90;;;;;;5040176;28;20053;-72
2023/09/02 07:36:38;;;;;;;0.00;0.00;;;19.30;99.90;;;;;;5041502;28;20802;-72
2023/09/02 07:39:04;;;;;;;0.00;0.00;;;19.40;99.90;;;;;;5043331;28;20039;-73
2023/09/02 07:41:30;;;;;;;0.00;0.00;;;19.40;99.90;;;;;;5042922;28;20045;-73
2023/09/02 07:43:56;;;;;;;0.00;0.00;;;19.50;99.90;;;;;;5042842;28;20063;-72
2023/09/02 07:46:22;;;;;;;0.17;0.17;;;19.60;99.90;;;;;;5042072;28;20120;-72
2023/09/02 07:48:49;;;;;;;0.00;0.00;;;20.40;99.90;;;;;;5043559;28;20028;-72
2023/09/02 07:51:17;;;;;;;0.00;0.00;;;21.20;99.90;;;;;;5042622;28;20028;-72
2023/09/02 07:53:43;;;;;;;0.00;0.00;;;20.80;99.90;;;;;;5042848;28;20017;-72
2023/09/02 07:56:09;;;;;;;0.00;0.00;;;21.10;99.90;;;;;;5042334;28;20028;-72
2023/09/02 07:58:34;;;;;;;0.00;0.00;;;20.90;99.90;;;;;;5042898;28;20041;-73
2023/09/02 08:01:00;;;;;;;0.00;0.00;;;20.60;99.90;;;;;;5042687;28;20025;-72
2023/09/02 08:03:26;;;;;;;0.00;0.00;;;21.90;99.90;;;;;;5041935;28;20022;-71
2023/09/02 08:05:52;;;;;;;0.00;0.00;;;21.10;99.90;;;;;;5042275;28;20017;-73
2023/09/02 08:08:17;;;;;;;0.00;0.00;;;21.10;99.90;;;;;;5042504;28;20074;-74
2023/09/02 08:10:43;;;;;;;0.00;0.00;;;21.00;99.90;;;;;;5040782;28;20523;-72
2023/09/02 08:13:09;;;;;;;0.00;0.00;;;20.70;99.90;;;;;;5042433;28;20463;-71
2023/09/02 08:15:37;;;;;;;0.00;0.00;;;20.70;99.90;;;;;;5042385;28;20051;-72
2023/09/02 08:18:03;;;;;;;0.00;0.00;;;20.60;99.90;;;;;;5042346;28;20029;-72
2023/09/02 08:20:30;;;;;;;0.00;0.00;;;20.50;99.90;;;;;;5042237;28;20280;-72
2023/09/02 08:22:56;;;;;;;0.00;0.00;;;20.40;99.90;;;;;;5042774;28;20475;-73
2023/09/02 08:25:21;;;;;;;0.00;0.00;;;20.20;99.90;;;;;;5041629;28;20036;-72
2023/09/02 08:27:47;;;;;;;0.00;0.00;;;20.00;99.90;;;;;;5042696;28;20688;-72
2023/09/02 08:30:14;;;;;;;0.00;0.00;;;19.90;99.90;;;;;;5042503;28;20439;-72
2023/09/02 08:32:41;;;;;;;0.00;0.00;;;19.90;99.90;;;;;;5036328;28;20310;-72
2023/09/02 08:35:08;;;;;;;0.00;0.00;;;19.80;99.90;;;;;;5040720;28;20056;-72
2023/09/02 08:37:34;;;;;;;0.00;0.00;;;19.80;99.90;;;;;;5041872;28;20499;-72
2023/09/02 08:40:00;;;;;;;;;;;19.90;99.90;;;;;;5041089;28;20666;-72
2023/09/02 08:42:26;;;;;;;0.00;0.00;;;20.00;99.90;;;;;;5040585;28;19905;-72
2023/09/02 08:44:55;;;;;;;0.00;0.00;;;20.00;99.90;;;;;;5041887;28;20090;-72
2023/09/02 08:47:21;;;;;;;0.00;0.00;;;20.10;99.90;;;;;;5043369;28;20021;-74
2023/09/02 08:49:49;;;;;;;0.00;0.00;;;19.90;99.90;;;;;;5042107;28;20045;-72
2023/09/02 08:52:15;;;;;;;0.00;0.00;;;19.60;99.90;;;;;;5040782;28;20036;-72
2023/09/02 08:54:42;;;;;;;0.00;0.00;;;19.70;99.90;;;;;;5040893;28;20028;-72
2023/09/02 08:57:10;;;;;;;;;;;19.70;99.90;;;;;;5042804;28;20031;-73
2023/09/02 08:59:36;;;;;;;0.00;0.00;;;19.90;99.90;;;;;;5042615;28;20601;-72
2023/09/02 09:02:02;;;;;;;0.00;0.00;;;19.90;99.90;;;;;;5041983;28;20070;-73
2023/09/02 09:04:34;;;;;;;0.10;0.10;;;20.20;99.90;;;;;;5042162;28;20098;-73
2023/09/02 09:07:03;;;;;;;0.00;0.00;;;20.50;99.90;;;;;;5042353;28;20116;-71
2023/09/02 09:09:30;;;;;;;0.00;0.00;;;20.90;99.90;;;;;;5042140;28;20021;-72
2023/09/02 09:11:58;;;;;;;0.00;0.00;;;21.50;99.90;;;;;;5041474;28;20032;-71
2023/09/02 09:14:26;;;;;;;0.00;0.00;;;22.50;99.90;;;;;;5041752;28;20029;-72
2023/09/02 09:16:55;;;;;;;0.00;0.00;;;25.00;99.90;;;;;;5041957;28;20423;-73
2023/09/02 09:19:25;;;;;;;0.00;0.00;;;25.90;99.90;;;;;;5042342;28;20029;-73
2023/09/02 09:21:51;;;;;;;0.00;0.00;;;26.00;99.90;;;;;;5042771;28;20033;-74
2023/09/02 09:24:16;;;;;;;0.00;0.00;;;25.40;99.90;;;;;;5042159;28;20025;-72
2023/09/02 09:26:43;;;;;;;0.00;0.00;;;25.70;99.90;;;;;;5040337;28;20108;-72
2023/09/02 09:29:16;;;;;;;0.00;0.00;;;26.70;99.90;;;;;;5042139;28;20029;-73
2023/09/02 09:31:42;;;;;;;0.00;0.00;;;25.40;99.90;;;;;;5042452;28;20036;-73
2023/09/02 09:34:08;;;;;;;0.00;0.00;;;24.30;99.90;;;;;;5035439;28;20115;-73
2023/09/02 09:36:34;;;;;;;0.00;0.00;;;23.60;99.90;;;;;;5043495;28;20057;-73
2023/09/02 09:39:04;;;;;;;0.00;0.00;;;23.50;99.90;;;;;;5044420;28;20039;-72
2023/09/02 09:41:30;;;;;;;0.00;0.00;;;23.30;99.90;;;;;;5045519;28;20090;-72
2023/09/02 09:44:12;;;;;;;0.00;0.00;;;23.40;99.90;;;;;;5049372;28;20128;-72
2023/09/02 09:46:44;;;;;;;0.00;0.00;;;23.50;99.90;;;;;;5048212;28;20029;-71
2023/09/02 09:49:25;;;;;;;0.00;0.00;;;23.50;99.90;;;;;;5044471;28;20102;-72
2023/09/02 09:52:07;;;;;;;0.03;0.03;;;23.60;99.90;;;;;;5044044;28;20028;-72
2023/09/02 09:54:40;;;;;;;0.00;0.00;;;23.70;99.90;;;;;;5045565;28;20024;-72
2023/09/02 09:57:08;;;;;;;0.00;0.00;;;23.50;99.90;;;;;;5043713;28;20043;-72
2023/09/02 09:59:34;;;;;;;0.00;0.00;;;23.50;99.90;;;;;;5045424;28;20021;-73
2023/09/02 10:02:04;;;;;;;0.00;0.00;;;23.30;99.90;;;;;;5042645;28;20075;-72
2023/09/02 10:04:31;;;;;;;0.00;0.00;;;23.40;99.90;;;;;;5045257;28;20061;-72
2023/09/02 10:07:01;;;;;;;0.00;0.00;;;23.80;99.90;;;;;;5054598;28;20025;-72
2023/09/02 10:09:45;;;;;;;0.00;0.00;;;23.50;99.90;;;;;;5044938;28;20064;-73
2023/09/02 10:12:18;;;;;;;0.00;0.00;;;23.30;99.90;;;;;;5044351;28;20025;-72
2023/09/02 10:14:45;;;;;;;0.00;0.00;;;23.40;99.90;;;;;;5044921;28;20079;-73
2023/09/02 10:17:12;;;;;;;0.00;0.00;;;23.50;99.90;;;;;;5044630;28;20013;-72
2023/09/02 10:19:38;;;;;;;0.32;0.32;;;23.70;99.90;;;;;;5044437;28;20025;-72
2023/09/02 10:22:05;;;;;;;0.00;0.00;;;23.70;99.90;;;;;;5044705;28;20029;-72
2023/09/02 10:24:52;;;;;;;0.00;0.00;;;23.70;99.90;;;;;;5045023;28;20334;-72
2023/09/02 10:27:23;;;;;;;0.00;0.00;;;23.70;99.90;;;;;;5038743;28;20036;-72
2023/09/02 10:30:00;;;;;;;0.00;0.00;;;23.50;99.90;;;;;;5043399;28;20147;-72
2023/09/02 10:32:36;;;;;;;0.00;0.00;;;23.40;99.90;;;;;;5040228;28;20029;-72
2023/09/02 10:35:08;;;;;;;0.00;0.00;;;23.80;99.90;;;;;;5042685;28;20868;-72
2023/09/02 10:37:49;;;;;;;0.00;0.00;;;23.90;99.90;;;;;;5044409;28;20439;-73
2023/09/02 10:40:24;;;;;;;0.00;0.00;;;23.90;99.90;;;;;;5044411;28;20789;-72
2023/09/02 10:42:50;;;;;;;0.00;0.00;;;23.70;99.90;;;;;;5035012;28;20052;-72
2023/09/02 10:45:19;;;;;;;0.00;0.00;;;24.00;99.90;;;;;;5044743;28;20029;-72
2023/09/02 10:47:46;;;;;;;0.00;0.00;;;24.60;99.90;;;;;;5042977;28;20416;-71
2023/09/02 10:50:15;;;;;;;0.00;0.00;;;24.40;99.90;;;;;;5044291;28;20025;-73
2023/09/02 10:52:40;;;;;;;0.00;0.00;;;24.80;99.90;;;;;;5043782;28;20091;-72
2023/09/02 10:55:10;;;;;;;0.00;0.00;;;26.00;99.90;;;;;;5044300;28;20099;-72
2023/09/02 10:57:56;;;;;;;0.00;0.00;;;26.50;99.20;;;;;;5044426;28;20060;-72
2023/09/02 11:00:26;;;;;;;0.00;0.00;;;25.40;99.20;;;;;;5044228;28;20791;-71
2023/09/02 11:02:53;;;;;;;0.00;0.00;;;24.50;99.90;;;;;;5042802;28;20135;-74
2023/09/02 11:05:20;;;;;;;0.00;0.00;;;24.20;99.90;;;;;;5043517;28;20025;-73
2023/09/02 11:07:47;;;;;;;0.00;0.00;;;24.70;99.90;;;;;;5043704;28;20032;-71
2023/09/02 11:10:13;;;;;;;0.00;0.00;;;24.90;99.90;;;;;;5041939;28;20059;-72
2023/09/02 11:13:11;;;;;;;0.00;0.00;;;24.60;99.90;;;;;;5044010;28;20021;-73
2023/09/02 11:15:37;;;;;;;0.00;0.00;;;24.40;99.90;;;;;;4990397;28;20502;-72
2023/09/02 11:18:34;;;;;;;0.00;0.00;;;25.10;99.90;;;;;;5043264;28;20039;-72
2023/09/02 11:20:59;;;;;;;0.00;0.00;;;25.60;99.30;;;;;;5041049;28;20036;-72
2023/09/02 11:23:25;;;;;;;0.08;0.00;;;26.00;99.80;;;;;;5043394;28;20029;-72
2023/09/02 11:26:02;;;;;;;0.00;0.00;;;25.80;99.90;;;;;;5043863;28;20041;-72
2023/09/02 11:28:29;;;;;;;0.00;0.00;;;25.90;98.90;;;;;;5040175;28;20037;-71
2023/09/02 11:31:21;;;;;;;0.00;0.00;;;26.00;99.90;;;;;;5043599;28;20052;-73
2023/09/02 11:33:47;;;;;;;0.00;0.00;;;26.30;99.90;;;;;;5030169;28;20122;-72
2023/09/02 11:36:18;;;;;;;0.00;0.00;;;26.00;99.00;;;;;;5043445;28;20065;-72
2023/09/02 11:38:44;;;;;;;0.00;0.00;;;26.00;99.60;;;;;;5042903;28;20029;-72
2023/09/02 11:41:20;;;;;;;0.00;0.00;;;26.00;98.00;;;;;;5043248;28;20114;-73
2023/09/02 11:43:46;;;;;;;;;;;25.80;97.60;;;;;;5042884;28;20029;-71
2023/09/02 11:46:11;;;;;;;;;;;25.60;97.10;;;;;;5044212;28;19908;-72
2023/09/02 11:48:37;;;;;;;0.00;0.00;;;25.60;97.50;;;;;;5043227;28;19909;-73
2023/09/02 11:51:03;;;;;;;0.00;0.00;;;25.60;99.10;;;;;;5043368;28;20037;-72
2023/09/02 11:53:31;;;;;;;0.00;0.00;;;26.20;98.00;;;;;;5042862;28;20033;-72
2023/09/02 11:55:57;;;;;;;0.00;0.00;;;26.00;97.50;;;;;;5042734;28;20044;-73
2023/09/02 11:58:23;;;;;;;0.00;0.00;;;25.90;96.80;;;;;;5042861;28;20036;-72
2023/09/02 12:00:50;;;;;;;0.00;0.00;;;25.70;97.80;;;;;;5042156;28;20102;-73
2023/09/02 12:03:29;;;;;;;0.00;0.00;;;25.80;97.90;;;;;;5041051;28;20029;-72
2023/09/02 12:05:59;;;;;;;0.00;0.00;;;26.10;97.50;;;;;;5041608;28;20408;-72
2023/09/02 12:08:26;;;;;;;0.00;0.00;;;26.00;95.80;;;;;;5042481;28;20037;-72
2023/09/02 12:10:52;;;;;;;0.00;0.00;;;26.50;96.40;;;;;;5042445;28;20025;-72
2023/09/02 12:13:18;;;;;;;0.00;0.00;;;26.70;95.70;;;;;;5043010;28;20107;-72
2023/09/02 12:15:51;;;;;;;0.00;0.00;;;26.50;94.60;;;;;;5044647;28;20072;-71
2023/09/02 12:18:18;;;;;;;0.00;0.00;;;25.90;95.40;;;;;;5042273;28;20029;-72
2023/09/02 12:20:45;;;;;;;0.00;0.00;;;26.20;95.60;;;;;;5042422;28;20535;-72
2023/09/02 12:23:11;;;;;;;0.00;0.00;;;26.10;95.30;;;;;;5042744;28;20377;-72
2023/09/02 12:25:38;;;;;;;0.00;0.00;;;26.10;95.50;;;;;;5042790;28;20532;-72
2023/09/02 12:28:16;;;;;;;0.00;0.00;;;26.00;94.80;;;;;;5040735;28;20037;-72
2023/09/02 12:30:48;;;;;;;0.00;0.00;;;26.20;96.00;;;;;;5042263;28;20492;-72
2023/09/02 12:33:15;;;;;;;0.00;0.00;;;26.90;95.20;;;;;;5036743;28;20033;-74
2023/09/02 12:35:49;;;;;;;0.00;0.00;;;26.90;94.80;;;;;;5041866;28;20092;-72
2023/09/02 12:38:15;;;;;;;0.00;0.00;;;26.40;94.30;;;;;;5051833;28;20947;-73
2023/09/02 12:40:54;;;;;;;0.00;0.00;;;26.20;95.00;;;;;;5043332;28;20779;-72
2023/09/02 12:43:28;;;;;;;0.00;0.00;;;26.30;94.30;;;;;;5042058;28;20067;-72
2023/09/02 12:45:55;;;;;;;0.00;0.00;;;26.20;94.80;;;;;;5042779;28;20072;-72
2023/09/02 12:48:21;;;;;;;0.00;0.00;;;26.50;94.70;;;;;;5042027;28;20033;-72
2023/09/02 12:50:47;;;;;;;0.00;0.00;;;26.10;93.80;;;;;;5040890;28;20079;-74